sensor_id;sensor_type;location;lat;lon;timestamp;P1;durP1;ratioP1;P2;durP2;ratioP2
79533;SDS011;68982;52.160;6.736;2023-10-08T00:01:35;13.63;;;4.88;;
79533;SDS011;68982;52.160;6.736;2023-10-08T00:04:00;14.98;;;4.75;;
79533;SDS011;68982;52.160;6.736;2023-10-08T00:06:29;14.50;;;4.47;;
79533;SDS011;68982;52.160;6.736;2023-10-08T00:08:55;13.88;;;4.78;;
79533;SDS011;68982;52.160;6.736;2023-10-08T00:11:25;12.25;;;4.40;;
79533;SDS011;68982;52.160;6.736;2023-10-08T00:13:51;14.00;;;4.80;;
79533;SDS011;68982;52.160;6.736;2023-10-08T00:16:21;13.63;;;4.25;;
79533;SDS011;68982;52.160;6.736;2023-10-08T00:18:47;14.18;;;5.45;;
79533;SDS011;68982;52.160;6.736;2023-10-08T00:21:16;11.60;;;4.55;;
79533;SDS011;68982;52.160;6.736;2023-10-08T00:23:44;10.02;;;5.03;;
79533;SDS011;68982;52.160;6.736;2023-10-08T00:26:25;14.45;;;4.88;;
79533;SDS011;68982;52.160;6.736;2023-10-08T00:28:57;14.50;;;4.97;;
79533;SDS011;68982;52.160;6.736;2023-10-08T00:31:31;13.73;;;4.40;;
79533;SDS011;68982;52.160;6.736;2023-10-08T00:34:02;12.50;;;4.78;;
79533;SDS011;68982;52.160;6.736;2023-10-08T00:36:31;12.98;;;4.78;;
79533;SDS011;68982;52.160;6.736;2023-10-08T00:38:59;13.10;;;4.25;;
79533;SDS011;68982;52.160;6.736;2023-10-08T00:41:25;14.23;;;4.65;;
79533;SDS011;68982;52.160;6.736;2023-10-08T00:43:55;16.23;;;5.20;;
79533;SDS011;68982;52.160;6.736;2023-10-08T00:46:26;17.05;;;4.97;;
79533;SDS011;68982;52.160;6.736;2023-10-08T00:48:57;14.00;;;4.50;;
79533;SDS011;68982;52.160;6.736;2023-10-08T00:51:45;17.08;;;4.88;;
79533;SDS011;68982;52.160;6.736;2023-10-08T00:54:10;15.93;;;5.18;;
79533;SDS011;68982;52.160;6.736;2023-10-08T00:56:42;14.65;;;5.32;;
79533;SDS011;68982;52.160;6.736;2023-10-08T00:59:14;19.45;;;5.03;;
79533;SDS011;68982;52.160;6.736;2023-10-08T01:01:41;14.40;;;5.55;;
79533;SDS011;68982;52.160;6.736;2023-10-08T01:04:20;14.20;;;4.82;;
79533;SDS011;68982;52.160;6.736;2023-10-08T01:06:55;12.88;;;4.78;;
79533;SDS011;68982;52.160;6.736;2023-10-08T01:09:26;17.45;;;5.43;;
79533;SDS011;68982;52.160;6.736;2023-10-08T01:12:13;18.65;;;5.50;;
79533;SDS011;68982;52.160;6.736;2023-10-08T01:15:03;15.90;;;5.40;;
79533;SDS011;68982;52.160;6.736;2023-10-08T01:17:46;18.90;;;5.72;;
79533;SDS011;68982;52.160;6.736;2023-10-08T01:20:18;14.60;;;5.43;;
79533;SDS011;68982;52.160;6.736;2023-10-08T01:23:04;18.00;;;5.25;;
79533;SDS011;68982;52.160;6.736;2023-10-08T01:25:34;18.45;;;5.20;;
79533;SDS011;68982;52.160;6.736;2023-10-08T01:28:00;12.80;;;4.85;;
79533;SDS011;68982;52.160;6.736;2023-10-08T01:30:40;15.10;;;5.68;;
79533;SDS011;68982;52.160;6.736;2023-10-08T01:33:07;18.83;;;5.25;;
79533;SDS011;68982;52.160;6.736;2023-10-08T01:35:37;20.42;;;5.88;;
79533;SDS011;68982;52.160;6.736;2023-10-08T01:38:02;14.77;;;5.18;;
79533;SDS011;68982;52.160;6.736;2023-10-08T01:40:28;14.45;;;5.13;;
79533;SDS011;68982;52.160;6.736;2023-10-08T01:42:55;15.18;;;5.95;;
79533;SDS011;68982;52.160;6.736;2023-10-08T01:45:25;13.68;;;5.20;;
79533;SDS011;68982;52.160;6.736;2023-10-08T01:47:51;20.40;;;5.93;;
79533;SDS011;68982;52.160;6.736;2023-10-08T01:50:18;13.43;;;5.90;;
79533;SDS011;68982;52.160;6.736;2023-10-08T01:52:49;18.17;;;5.63;;
79533;SDS011;68982;52.160;6.736;2023-10-08T01:55:16;16.55;;;5.43;;
79533;SDS011;68982;52.160;6.736;2023-10-08T01:57:48;10.90;;;4.75;;
79533;SDS011;68982;52.160;6.736;2023-10-08T02:00:14;20.77;;;5.68;;
79533;SDS011;68982;52.160;6.736;2023-10-08T02:02:51;19.13;;;6.38;;
79533;SDS011;68982;52.160;6.736;2023-10-08T02:07:47;15.90;;;5.55;;
79533;SDS011;68982;52.160;6.736;2023-10-08T02:10:13;19.75;;;5.88;;
79533;SDS011;68982;52.160;6.736;2023-10-08T02:12:41;15.07;;;5.70;;
79533;SDS011;68982;52.160;6.736;2023-10-08T02:15:07;14.20;;;5.38;;
79533;SDS011;68982;52.160;6.736;2023-10-08T02:17:33;17.08;;;5.50;;
79533;SDS011;68982;52.160;6.736;2023-10-08T02:19:59;9.82;;;4.25;;
79533;SDS011;68982;52.160;6.736;2023-10-08T02:22:25;5.93;;;2.72;;
79533;SDS011;68982;52.160;6.736;2023-10-08T02:24:50;4.78;;;2.55;;
79533;SDS011;68982;52.160;6.736;2023-10-08T02:27:18;3.70;;;2.45;;
79533;SDS011;68982;52.160;6.736;2023-10-08T02:29:43;3.22;;;2.22;;
79533;SDS011;68982;52.160;6.736;2023-10-08T02:32:09;3.25;;;2.53;;
79533;SDS011;68982;52.160;6.736;2023-10-08T02:34:34;4.30;;;2.63;;
79533;SDS011;68982;52.160;6.736;2023-10-08T02:37:00;3.03;;;2.17;;
79533;SDS011;68982;52.160;6.736;2023-10-08T02:39:28;3.15;;;2.55;;
79533;SDS011;68982;52.160;6.736;2023-10-08T02:41:55;5.65;;;2.55;;
79533;SDS011;68982;52.160;6.736;2023-10-08T02:44:23;3.95;;;2.30;;
79533;SDS011;68982;52.160;6.736;2023-10-08T02:46:49;3.53;;;2.10;;
79533;SDS011;68982;52.160;6.736;2023-10-08T02:49:19;3.25;;;1.73;;
79533;SDS011;68982;52.160;6.736;2023-10-08T02:51:50;2.50;;;1.80;;
79533;SDS011;68982;52.160;6.736;2023-10-08T02:54:17;2.60;;;1.55;;
79533;SDS011;68982;52.160;6.736;2023-10-08T02:56:47;2.15;;;1.52;;
79533;SDS011;68982;52.160;6.736;2023-10-08T02:59:16;2.78;;;1.45;;
79533;SDS011;68982;52.160;6.736;2023-10-08T03:01:43;2.90;;;1.65;;
79533;SDS011;68982;52.160;6.736;2023-10-08T03:04:08;3.08;;;1.52;;
79533;SDS011;68982;52.160;6.736;2023-10-08T03:06:44;4.70;;;1.75;;
79533;SDS011;68982;52.160;6.736;2023-10-08T03:09:20;2.35;;;1.33;;
79533;SDS011;68982;52.160;6.736;2023-10-08T03:11:49;2.30;;;1.50;;
79533;SDS011;68982;52.160;6.736;2023-10-08T03:14:16;3.17;;;1.85;;
79533;SDS011;68982;52.160;6.736;2023-10-08T03:16:52;2.80;;;1.33;;
79533;SDS011;68982;52.160;6.736;2023-10-08T03:19:22;2.60;;;1.50;;
79533;SDS011;68982;52.160;6.736;2023-10-08T03:21:48;4.72;;;1.30;;
79533;SDS011;68982;52.160;6.736;2023-10-08T03:24:21;5.00;;;1.60;;
79533;SDS011;68982;52.160;6.736;2023-10-08T03:27:03;3.13;;;1.50;;
79533;SDS011;68982;52.160;6.736;2023-10-08T03:29:51;4.22;;;1.60;;
79533;SDS011;68982;52.160;6.736;2023-10-08T03:32:19;3.13;;;1.70;;
79533;SDS011;68982;52.160;6.736;2023-10-08T03:34:51;3.20;;;1.63;;
79533;SDS011;68982;52.160;6.736;2023-10-08T03:37:20;3.35;;;1.70;;
79533;SDS011;68982;52.160;6.736;2023-10-08T03:39:54;2.92;;;1.88;;
79533;SDS011;68982;52.160;6.736;2023-10-08T03:42:32;3.83;;;1.80;;
79533;SDS011;68982;52.160;6.736;2023-10-08T03:45:05;3.35;;;1.67;;
79533;SDS011;68982;52.160;6.736;2023-10-08T03:47:41;2.70;;;1.63;;
79533;SDS011;68982;52.160;6.736;2023-10-08T03:50:11;5.97;;;1.92;;
79533;SDS011;68982;52.160;6.736;2023-10-08T03:52:41;4.05;;;1.77;;
79533;SDS011;68982;52.160;6.736;2023-10-08T03:55:08;3.05;;;2.00;;
79533;SDS011;68982;52.160;6.736;2023-10-08T03:57:47;5.15;;;2.50;;
79533;SDS011;68982;52.160;6.736;2023-10-08T04:00:21;3.65;;;2.30;;
79533;SDS011;68982;52.160;6.736;2023-10-08T04:02:54;4.47;;;2.30;;
79533;SDS011;68982;52.160;6.736;2023-10-08T04:05:25;4.50;;;2.95;;
79533;SDS011;68982;52.160;6.736;2023-10-08T04:07:57;3.25;;;2.13;;
79533;SDS011;68982;52.160;6.736;2023-10-08T04:10:23;4.15;;;2.80;;
79533;SDS011;68982;52.160;6.736;2023-10-08T04:13:07;5.00;;;2.60;;
79533;SDS011;68982;52.160;6.736;2023-10-08T04:15:34;7.45;;;3.25;;
79533;SDS011;68982;52.160;6.736;2023-10-08T04:18:05;5.80;;;2.92;;
79533;SDS011;68982;52.160;6.736;2023-10-08T04:20:33;7.15;;;3.60;;
79533;SDS011;68982;52.160;6.736;2023-10-08T04:23:04;5.30;;;3.15;;
79533;SDS011;68982;52.160;6.736;2023-10-08T04:27:57;4.82;;;2.90;;
79533;SDS011;68982;52.160;6.736;2023-10-08T04:30:26;4.97;;;3.10;;
79533;SDS011;68982;52.160;6.736;2023-10-08T04:33:02;4.90;;;2.58;;
79533;SDS011;68982;52.160;6.736;2023-10-08T04:35:38;4.75;;;2.63;;
79533;SDS011;68982;52.160;6.736;2023-10-08T04:38:13;3.25;;;1.90;;
79533;SDS011;68982;52.160;6.736;2023-10-08T04:40:42;4.32;;;2.15;;
79533;SDS011;68982;52.160;6.736;2023-10-08T04:43:13;4.38;;;2.20;;
79533;SDS011;68982;52.160;6.736;2023-10-08T04:48:06;6.18;;;2.08;;
79533;SDS011;68982;52.160;6.736;2023-10-08T04:50:35;4.47;;;2.30;;
79533;SDS011;68982;52.160;6.736;2023-10-08T04:55:33;4.82;;;2.13;;
79533;SDS011;68982;52.160;6.736;2023-10-08T04:58:06;3.17;;;1.83;;
79533;SDS011;68982;52.160;6.736;2023-10-08T05:00:44;3.50;;;1.60;;
79533;SDS011;68982;52.160;6.736;2023-10-08T05:03:19;2.70;;;1.60;;
79533;SDS011;68982;52.160;6.736;2023-10-08T05:05:47;3.85;;;1.60;;
79533;SDS011;68982;52.160;6.736;2023-10-08T05:08:31;3.25;;;1.55;;
79533;SDS011;68982;52.160;6.736;2023-10-08T05:11:15;4.25;;;1.40;;
79533;SDS011;68982;52.160;6.736;2023-10-08T05:13:49;5.28;;;1.48;;
79533;SDS011;68982;52.160;6.736;2023-10-08T05:16:30;3.13;;;1.60;;
79533;SDS011;68982;52.160;6.736;2023-10-08T05:19:08;3.47;;;1.58;;
79533;SDS011;68982;52.160;6.736;2023-10-08T05:21:54;2.70;;;1.60;;
79533;SDS011;68982;52.160;6.736;2023-10-08T05:24:39;3.33;;;1.73;;
79533;SDS011;68982;52.160;6.736;2023-10-08T05:27:16;3.33;;;1.42;;
79533;SDS011;68982;52.160;6.736;2023-10-08T05:30:02;3.17;;;1.65;;
79533;SDS011;68982;52.160;6.736;2023-10-08T05:32:40;4.40;;;1.95;;
79533;SDS011;68982;52.160;6.736;2023-10-08T05:35:24;5.00;;;1.63;;
79533;SDS011;68982;52.160;6.736;2023-10-08T05:38:03;2.50;;;1.42;;
79533;SDS011;68982;52.160;6.736;2023-10-08T05:40:39;2.88;;;1.63;;
79533;SDS011;68982;52.160;6.736;2023-10-08T05:43:24;5.03;;;1.80;;
79533;SDS011;68982;52.160;6.736;2023-10-08T05:46:07;4.18;;;1.92;;
79533;SDS011;68982;52.160;6.736;2023-10-08T05:48:50;3.15;;;2.00;;
79533;SDS011;68982;52.160;6.736;2023-10-08T05:51:31;2.67;;;1.67;;
79533;SDS011;68982;52.160;6.736;2023-10-08T05:54:13;3.30;;;1.90;;
79533;SDS011;68982;52.160;6.736;2023-10-08T05:56:55;2.75;;;1.55;;
79533;SDS011;68982;52.160;6.736;2023-10-08T05:59:46;2.58;;;1.63;;
79533;SDS011;68982;52.160;6.736;2023-10-08T06:02:25;3.78;;;1.90;;
79533;SDS011;68982;52.160;6.736;2023-10-08T06:04:53;2.63;;;1.67;;
79533;SDS011;68982;52.160;6.736;2023-10-08T06:07:58;3.45;;;1.92;;
79533;SDS011;68982;52.160;6.736;2023-10-08T06:10:36;5.07;;;2.08;;
79533;SDS011;68982;52.160;6.736;2023-10-08T06:13:19;4.43;;;2.13;;
79533;SDS011;68982;52.160;6.736;2023-10-08T06:15:55;5.53;;;1.98;;
79533;SDS011;68982;52.160;6.736;2023-10-08T06:18:28;3.70;;;1.83;;
79533;SDS011;68982;52.160;6.736;2023-10-08T06:20:55;4.30;;;2.25;;
79533;SDS011;68982;52.160;6.736;2023-10-08T06:23:32;3.63;;;2.10;;
79533;SDS011;68982;52.160;6.736;2023-10-08T06:25:57;3.92;;;2.28;;
79533;SDS011;68982;52.160;6.736;2023-10-08T06:28:24;3.30;;;1.95;;
79533;SDS011;68982;52.160;6.736;2023-10-08T06:30:54;4.25;;;1.83;;
79533;SDS011;68982;52.160;6.736;2023-10-08T06:33:22;3.88;;;2.22;;
79533;SDS011;68982;52.160;6.736;2023-10-08T06:35:50;5.30;;;1.92;;
79533;SDS011;68982;52.160;6.736;2023-10-08T06:38:31;4.18;;;2.47;;
79533;SDS011;68982;52.160;6.736;2023-10-08T06:41:01;5.57;;;2.42;;
79533;SDS011;68982;52.160;6.736;2023-10-08T06:43:36;3.35;;;2.22;;
79533;SDS011;68982;52.160;6.736;2023-10-08T06:46:02;6.85;;;2.78;;
79533;SDS011;68982;52.160;6.736;2023-10-08T06:48:29;4.47;;;2.55;;
79533;SDS011;68982;52.160;6.736;2023-10-08T06:50:55;4.07;;;2.50;;
79533;SDS011;68982;52.160;6.736;2023-10-08T06:53:23;4.55;;;2.50;;
79533;SDS011;68982;52.160;6.736;2023-10-08T06:55:50;5.15;;;2.88;;
79533;SDS011;68982;52.160;6.736;2023-10-08T06:58:22;7.25;;;2.60;;
79533;SDS011;68982;52.160;6.736;2023-10-08T07:03:15;3.95;;;2.25;;
79533;SDS011;68982;52.160;6.736;2023-10-08T07:05:47;5.90;;;2.78;;
79533;SDS011;68982;52.160;6.736;2023-10-08T07:10:51;5.50;;;2.35;;
79533;SDS011;68982;52.160;6.736;2023-10-08T07:13:18;5.47;;;2.22;;
79533;SDS011;68982;52.160;6.736;2023-10-08T07:15:50;4.50;;;2.30;;
79533;SDS011;68982;52.160;6.736;2023-10-08T07:18:17;5.55;;;2.22;;
79533;SDS011;68982;52.160;6.736;2023-10-08T07:20:53;4.57;;;2.13;;
79533;SDS011;68982;52.160;6.736;2023-10-08T07:23:22;6.55;;;2.50;;
79533;SDS011;68982;52.160;6.736;2023-10-08T07:25:56;4.07;;;2.08;;
79533;SDS011;68982;52.160;6.736;2023-10-08T07:28:35;5.32;;;2.33;;
79533;SDS011;68982;52.160;6.736;2023-10-08T07:33:40;4.97;;;2.33;;
79533;SDS011;68982;52.160;6.736;2023-10-08T07:36:08;4.63;;;2.20;;
79533;SDS011;68982;52.160;6.736;2023-10-08T07:38:39;5.90;;;2.72;;
79533;SDS011;68982;52.160;6.736;2023-10-08T07:41:11;5.97;;;2.00;;
79533;SDS011;68982;52.160;6.736;2023-10-08T07:43:41;4.30;;;2.60;;
79533;SDS011;68982;52.160;6.736;2023-10-08T07:46:11;5.85;;;2.42;;
79533;SDS011;68982;52.160;6.736;2023-10-08T07:48:40;4.95;;;2.13;;
79533;SDS011;68982;52.160;6.736;2023-10-08T07:51:08;3.80;;;2.15;;
79533;SDS011;68982;52.160;6.736;2023-10-08T07:53:33;5.78;;;2.22;;
79533;SDS011;68982;52.160;6.736;2023-10-08T07:56:07;6.80;;;2.00;;
79533;SDS011;68982;52.160;6.736;2023-10-08T07:58:33;3.67;;;1.88;;
79533;SDS011;68982;52.160;6.736;2023-10-08T08:01:02;5.35;;;1.95;;
79533;SDS011;68982;52.160;6.736;2023-10-08T08:03:39;4.20;;;1.98;;
79533;SDS011;68982;52.160;6.736;2023-10-08T08:06:06;5.13;;;2.10;;
79533;SDS011;68982;52.160;6.736;2023-10-08T08:08:32;4.97;;;2.00;;
79533;SDS011;68982;52.160;6.736;2023-10-08T08:10:59;4.72;;;1.95;;
79533;SDS011;68982;52.160;6.736;2023-10-08T08:13:30;3.08;;;1.83;;
79533;SDS011;68982;52.160;6.736;2023-10-08T08:15:58;3.75;;;2.25;;
79533;SDS011;68982;52.160;6.736;2023-10-08T08:18:34;4.35;;;2.58;;
79533;SDS011;68982;52.160;6.736;2023-10-08T08:21:02;6.32;;;2.40;;
79533;SDS011;68982;52.160;6.736;2023-10-08T08:23:31;5.00;;;2.28;;
79533;SDS011;68982;52.160;6.736;2023-10-08T08:25:56;6.85;;;2.40;;
79533;SDS011;68982;52.160;6.736;2023-10-08T08:28:36;7.00;;;2.50;;
79533;SDS011;68982;52.160;6.736;2023-10-08T08:31:05;6.07;;;2.58;;
79533;SDS011;68982;52.160;6.736;2023-10-08T08:33:54;4.18;;;2.33;;
79533;SDS011;68982;52.160;6.736;2023-10-08T08:36:26;4.55;;;1.95;;
79533;SDS011;68982;52.160;6.736;2023-10-08T08:38:52;4.80;;;2.25;;
79533;SDS011;68982;52.160;6.736;2023-10-08T08:41:19;5.55;;;2.40;;
79533;SDS011;68982;52.160;6.736;2023-10-08T08:46:26;6.78;;;2.38;;
79533;SDS011;68982;52.160;6.736;2023-10-08T08:48:55;3.95;;;2.22;;
79533;SDS011;68982;52.160;6.736;2023-10-08T08:53:48;5.40;;;1.83;;
79533;SDS011;68982;52.160;6.736;2023-10-08T08:56:15;4.07;;;1.90;;
79533;SDS011;68982;52.160;6.736;2023-10-08T08:58:41;3.42;;;1.95;;
79533;SDS011;68982;52.160;6.736;2023-10-08T09:01:07;4.00;;;1.98;;
79533;SDS011;68982;52.160;6.736;2023-10-08T09:03:38;4.57;;;1.95;;
79533;SDS011;68982;52.160;6.736;2023-10-08T09:06:04;3.83;;;1.83;;
79533;SDS011;68982;52.160;6.736;2023-10-08T09:08:34;3.50;;;1.73;;
79533;SDS011;68982;52.160;6.736;2023-10-08T09:11:00;4.00;;;1.95;;
79533;SDS011;68982;52.160;6.736;2023-10-08T09:13:26;4.20;;;1.52;;
79533;SDS011;68982;52.160;6.736;2023-10-08T09:16:12;3.28;;;1.52;;
79533;SDS011;68982;52.160;6.736;2023-10-08T09:18:41;4.40;;;1.70;;
79533;SDS011;68982;52.160;6.736;2023-10-08T09:21:10;4.80;;;1.90;;
79533;SDS011;68982;52.160;6.736;2023-10-08T09:23:41;13.18;;;2.08;;
79533;SDS011;68982;52.160;6.736;2023-10-08T09:26:12;5.38;;;1.80;;
79533;SDS011;68982;52.160;6.736;2023-10-08T09:28:44;6.15;;;1.80;;
79533;SDS011;68982;52.160;6.736;2023-10-08T09:31:12;5.25;;;1.75;;
79533;SDS011;68982;52.160;6.736;2023-10-08T09:33:38;3.97;;;1.70;;
79533;SDS011;68982;52.160;6.736;2023-10-08T09:36:04;5.15;;;1.63;;
79533;SDS011;68982;52.160;6.736;2023-10-08T09:38:30;2.65;;;1.52;;
79533;SDS011;68982;52.160;6.736;2023-10-08T09:40:58;4.18;;;1.80;;
79533;SDS011;68982;52.160;6.736;2023-10-08T09:43:28;8.32;;;2.05;;
79533;SDS011;68982;52.160;6.736;2023-10-08T09:48:49;3.53;;;1.80;;
79533;SDS011;68982;52.160;6.736;2023-10-08T09:51:19;7.05;;;2.10;;
79533;SDS011;68982;52.160;6.736;2023-10-08T09:54:03;4.30;;;2.00;;
79533;SDS011;68982;52.160;6.736;2023-10-08T09:56:35;26.25;;;7.18;;
79533;SDS011;68982;52.160;6.736;2023-10-08T09:59:01;44.03;;;18.65;;
79533;SDS011;68982;52.160;6.736;2023-10-08T10:01:27;50.15;;;22.90;;
79533;SDS011;68982;52.160;6.736;2023-10-08T10:03:53;16.58;;;7.70;;
79533;SDS011;68982;52.160;6.736;2023-10-08T10:06:20;6.68;;;3.00;;
79533;SDS011;68982;52.160;6.736;2023-10-08T10:08:45;17.02;;;6.38;;
79533;SDS011;68982;52.160;6.736;2023-10-08T10:11:13;12.32;;;4.43;;
79533;SDS011;68982;52.160;6.736;2023-10-08T10:13:44;20.65;;;10.73;;
79533;SDS011;68982;52.160;6.736;2023-10-08T10:16:17;8.90;;;5.78;;
79533;SDS011;68982;52.160;6.736;2023-10-08T10:18:48;8.30;;;4.80;;
79533;SDS011;68982;52.160;6.736;2023-10-08T10:23:47;4.57;;;1.98;;
79533;SDS011;68982;52.160;6.736;2023-10-08T10:26:22;9.35;;;2.28;;
79533;SDS011;68982;52.160;6.736;2023-10-08T10:31:40;3.90;;;1.50;;
79533;SDS011;68982;52.160;6.736;2023-10-08T10:34:11;7.88;;;1.75;;
79533;SDS011;68982;52.160;6.736;2023-10-08T10:36:45;3.75;;;1.40;;
79533;SDS011;68982;52.160;6.736;2023-10-08T10:39:14;7.63;;;2.13;;
79533;SDS011;68982;52.160;6.736;2023-10-08T10:41:50;6.63;;;1.73;;
79533;SDS011;68982;52.160;6.736;2023-10-08T10:44:16;4.40;;;1.70;;
79533;SDS011;68982;52.160;6.736;2023-10-08T10:46:42;3.17;;;1.63;;
79533;SDS011;68982;52.160;6.736;2023-10-08T10:51:47;5.40;;;1.83;;
79533;SDS011;68982;52.160;6.736;2023-10-08T10:54:17;4.57;;;1.73;;
79533;SDS011;68982;52.160;6.736;2023-10-08T10:56:48;5.72;;;1.65;;
79533;SDS011;68982;52.160;6.736;2023-10-08T10:59:30;3.70;;;1.52;;
79533;SDS011;68982;52.160;6.736;2023-10-08T11:02:02;7.47;;;1.73;;
79533;SDS011;68982;52.160;6.736;2023-10-08T11:04:34;3.45;;;1.52;;
79533;SDS011;68982;52.160;6.736;2023-10-08T11:07:16;5.82;;;1.80;;
79533;SDS011;68982;52.160;6.736;2023-10-08T11:09:52;4.00;;;2.65;;
79533;SDS011;68982;52.160;6.736;2023-10-08T11:12:20;7.47;;;3.53;;
79533;SDS011;68982;52.160;6.736;2023-10-08T11:14:48;4.80;;;2.78;;
79533;SDS011;68982;52.160;6.736;2023-10-08T11:17:17;2.85;;;1.90;;
79533;SDS011;68982;52.160;6.736;2023-10-08T11:19:47;3.80;;;1.85;;
79533;SDS011;68982;52.160;6.736;2023-10-08T11:22:13;3.75;;;1.42;;
79533;SDS011;68982;52.160;6.736;2023-10-08T11:24:42;4.63;;;1.83;;
79533;SDS011;68982;52.160;6.736;2023-10-08T11:27:17;2.63;;;1.67;;
79533;SDS011;68982;52.160;6.736;2023-10-08T11:32:23;3.97;;;1.38;;
79533;SDS011;68982;52.160;6.736;2023-10-08T11:34:56;5.07;;;1.60;;
79533;SDS011;68982;52.160;6.736;2023-10-08T11:37:28;3.75;;;1.63;;
79533;SDS011;68982;52.160;6.736;2023-10-08T11:39:55;5.90;;;1.52;;
79533;SDS011;68982;52.160;6.736;2023-10-08T11:42:24;4.00;;;1.67;;
79533;SDS011;68982;52.160;6.736;2023-10-08T11:44:56;3.67;;;1.17;;
79533;SDS011;68982;52.160;6.736;2023-10-08T11:47:24;4.78;;;1.45;;
79533;SDS011;68982;52.160;6.736;2023-10-08T11:49:56;4.55;;;1.38;;
79533;SDS011;68982;52.160;6.736;2023-10-08T11:52:35;3.13;;;1.33;;
79533;SDS011;68982;52.160;6.736;2023-10-08T11:55:06;6.15;;;3.30;;
79533;SDS011;68982;52.160;6.736;2023-10-08T11:57:32;4.30;;;1.88;;
